createdAt,value
2019-03-31T00:01:07.289Z,929.20
2019-03-31T00:02:25.702Z,929.19
2019-03-31T00:03:57.516Z,929.19
2019-03-31T00:05:29.430Z,929.14
2019-03-31T00:07:01.145Z,929.09
2019-03-31T00:08:33.010Z,929.09
2019-03-31T00:10:04.778Z,929.09
2019-03-31T00:11:36.589Z,929.08
2019-03-31T00:13:08.404Z,929.07
2019-03-31T00:14:40.219Z,929.11
2019-03-31T00:16:12.036Z,929.12
2019-03-31T00:17:43.900Z,929.13
2019-03-31T00:19:15.757Z,929.12
2019-03-31T00:20:47.478Z,929.13
2019-03-31T00:22:19.334Z,929.10
2019-03-31T00:23:51.207Z,929.10
2019-03-31T00:25:22.922Z,929.14
2019-03-31T00:26:54.736Z,929.13
2019-03-31T00:28:26.551Z,929.09
2019-03-31T00:29:58.369Z,929.11
2019-03-31T00:31:30.181Z,929.06
2019-03-31T00:33:01.999Z,929.07
2019-03-31T00:34:33.809Z,929.10
2019-03-31T00:36:05.624Z,929.13
2019-03-31T00:37:37.439Z,929.13
2019-03-31T00:39:09.256Z,929.05
2019-03-31T00:40:41.068Z,929.01
2019-03-31T00:42:13.036Z,928.99
2019-03-31T00:43:44.706Z,928.95
2019-03-31T00:45:16.512Z,928.97
2019-03-31T00:46:48.328Z,928.92
2019-03-31T00:48:20.141Z,928.91
2019-03-31T00:49:51.993Z,928.94
2019-03-31T00:51:23.780Z,928.98
2019-03-31T00:52:55.636Z,928.94
2019-03-31T00:54:28.421Z,928.94
2019-03-31T00:55:59.215Z,928.94
2019-03-31T00:57:31.035Z,928.96
2019-03-31T00:59:02.847Z,928.99
2019-03-31T01:00:34.759Z,928.97
2019-03-31T01:02:06.473Z,928.96
2019-03-31T01:03:38.376Z,928.99
2019-03-31T01:05:10.103Z,928.86
2019-03-31T01:06:41.917Z,928.88
2019-03-31T01:08:13.732Z,928.85
2019-03-31T01:09:45.556Z,928.88
2019-03-31T01:11:17.360Z,928.83
2019-03-31T01:12:49.176Z,928.83
2019-03-31T01:14:21.273Z,928.83
2019-03-31T01:15:52.864Z,928.87
2019-03-31T01:17:24.618Z,928.87
2019-03-31T01:18:56.533Z,928.89
2019-03-31T01:20:28.247Z,928.91
2019-03-31T01:22:00.062Z,928.91
2019-03-31T01:23:31.876Z,928.90
2019-03-31T01:25:03.740Z,928.84
2019-03-31T01:26:35.509Z,928.82
2019-03-31T01:28:07.320Z,928.84
2019-03-31T01:29:39.134Z,928.83
2019-03-31T01:31:10.949Z,928.85
2019-03-31T01:32:42.789Z,928.83
2019-03-31T01:34:14.578Z,928.86
2019-03-31T01:35:46.392Z,928.88
2019-03-31T01:37:20.136Z,928.84
2019-03-31T01:38:50.025Z,928.80
2019-03-31T01:40:21.900Z,928.80
2019-03-31T01:41:53.654Z,928.81
2019-03-31T01:43:25.465Z,928.80
2019-03-31T01:44:57.279Z,928.79
2019-03-31T01:46:29.095Z,928.78
2019-03-31T01:48:00.908Z,928.75
2019-03-31T01:49:32.723Z,928.69
2019-03-31T01:51:04.647Z,928.70
2019-03-31T01:52:36.663Z,928.70
2019-03-31T01:54:08.167Z,928.69
2019-03-31T01:55:40.081Z,928.67
2019-03-31T01:57:11.809Z,928.62
2019-03-31T01:58:43.613Z,928.67
2019-03-31T02:00:15.424Z,928.66
2019-03-31T02:01:47.239Z,928.66
2019-03-31T02:03:19.053Z,928.67
2019-03-31T02:04:50.884Z,928.73
2019-03-31T02:06:22.682Z,928.71
2019-03-31T02:07:54.497Z,928.70
2019-03-31T02:09:26.311Z,928.73
2019-03-31T02:10:58.128Z,928.71
2019-03-31T02:12:29.941Z,928.67
2019-03-31T02:14:02.061Z,928.71
2019-03-31T02:15:33.571Z,928.62
2019-03-31T02:17:05.385Z,928.65
2019-03-31T02:18:37.210Z,928.64
2019-03-31T02:20:09.114Z,928.63
2019-03-31T02:21:40.836Z,928.64
2019-03-31T02:23:12.644Z,928.65
2019-03-31T02:24:44.458Z,928.60
2019-03-31T02:26:16.273Z,928.57
2019-03-31T02:27:48.236Z,928.56
2019-03-31T02:29:19.902Z,928.60
2019-03-31T02:30:51.721Z,928.59
2019-03-31T02:32:24.802Z,928.61
2019-03-31T02:33:55.346Z,928.68
2019-03-31T02:35:27.230Z,928.71
2019-03-31T02:36:59.002Z,928.59
2019-03-31T02:38:30.790Z,928.58
2019-03-31T02:40:02.678Z,928.56
2019-03-31T02:41:34.425Z,928.54
2019-03-31T02:43:06.233Z,928.52
2019-03-31T02:44:38.048Z,928.49
2019-03-31T02:46:09.901Z,928.55
2019-03-31T02:47:41.678Z,928.52
2019-03-31T02:49:13.492Z,928.54
2019-03-31T02:50:45.511Z,928.54
2019-03-31T02:52:17.121Z,928.51
2019-03-31T02:53:48.950Z,928.53
2019-03-31T02:55:20.750Z,928.47
2019-03-31T02:56:52.564Z,928.49
2019-03-31T02:58:24.378Z,928.42
2019-03-31T02:59:56.193Z,928.48
2019-03-31T03:01:28.007Z,928.52
2019-03-31T03:02:59.834Z,928.46
2019-03-31T03:04:31.635Z,928.48
2019-03-31T03:06:03.452Z,928.47
2019-03-31T03:07:35.268Z,928.51
2019-03-31T03:09:07.178Z,928.53
2019-03-31T03:10:38.899Z,928.51
2019-03-31T03:12:10.705Z,928.45
2019-03-31T03:13:42.520Z,928.46
2019-03-31T03:15:14.345Z,928.51
2019-03-31T03:16:46.147Z,928.55
2019-03-31T03:18:17.963Z,928.52
2019-03-31T03:19:49.783Z,928.48
2019-03-31T03:21:24.120Z,928.53
2019-03-31T03:22:53.404Z,928.48
2019-03-31T03:24:25.231Z,928.48
2019-03-31T03:25:57.142Z,928.39
2019-03-31T03:27:29.055Z,928.37
2019-03-31T03:29:00.662Z,928.39
2019-03-31T03:30:32.517Z,928.41
2019-03-31T03:32:04.296Z,928.35
2019-03-31T03:33:36.205Z,928.33
2019-03-31T03:35:07.930Z,928.26
2019-03-31T03:36:43.230Z,928.25
2019-03-31T03:38:11.551Z,928.26
2019-03-31T03:39:43.358Z,928.26
2019-03-31T03:41:15.274Z,928.27
2019-03-31T03:42:47.009Z,928.23
2019-03-31T03:44:18.832Z,928.19
2019-03-31T03:45:50.726Z,928.12
2019-03-31T03:47:22.435Z,928.19
2019-03-31T03:48:54.281Z,928.14
2019-03-31T03:50:26.058Z,928.15
2019-03-31T03:51:57.883Z,928.17
2019-03-31T03:53:29.685Z,928.10
2019-03-31T03:55:01.501Z,928.10
2019-03-31T03:56:33.314Z,928.02
2019-03-31T03:58:05.142Z,927.99
2019-03-31T03:59:36.941Z,928.01
2019-03-31T04:01:08.755Z,928.01
2019-03-31T04:02:40.589Z,927.99
2019-03-31T04:04:12.683Z,927.99
2019-03-31T04:05:44.197Z,927.95
2019-03-31T04:07:16.011Z,927.99
2019-03-31T04:08:47.822Z,928.03
2019-03-31T04:10:19.638Z,927.95
2019-03-31T04:11:51.453Z,927.94
2019-03-31T04:13:23.266Z,927.95
2019-03-31T04:14:55.084Z,927.86
2019-03-31T04:16:26.899Z,927.85
2019-03-31T04:17:58.706Z,927.81
2019-03-31T04:19:30.530Z,927.77
2019-03-31T04:21:02.335Z,927.77
2019-03-31T04:22:34.548Z,927.83
2019-03-31T04:24:05.967Z,927.79
2019-03-31T04:25:37.782Z,927.77
2019-03-31T04:27:09.598Z,927.75
2019-03-31T04:28:41.405Z,927.73
2019-03-31T04:30:13.217Z,927.72
2019-03-31T04:31:45.029Z,927.73
2019-03-31T04:33:16.852Z,927.73
2019-03-31T04:34:48.758Z,927.71
2019-03-31T04:36:20.488Z,927.71
2019-03-31T04:37:52.284Z,927.60
2019-03-31T04:39:24.098Z,927.61
2019-03-31T04:40:56.014Z,927.54
2019-03-31T04:42:27.725Z,927.50
2019-03-31T04:43:59.544Z,927.42
2019-03-31T04:45:31.352Z,927.46
2019-03-31T04:47:03.169Z,927.42
2019-03-31T04:48:34.984Z,927.44
2019-03-31T04:50:06.793Z,927.45
2019-03-31T04:51:38.626Z,927.46
2019-03-31T04:53:10.423Z,927.44
2019-03-31T04:54:42.233Z,927.41
2019-03-31T04:56:14.097Z,927.37
2019-03-31T04:57:45.862Z,927.37
2019-03-31T04:59:17.774Z,927.37
2019-03-31T05:00:49.499Z,927.40
2019-03-31T05:02:21.300Z,927.32
2019-03-31T05:04:04.687Z,927.36
2019-03-31T05:05:25.028Z,927.28
2019-03-31T05:06:56.742Z,927.25
2019-03-31T05:08:28.586Z,927.20
2019-03-31T05:10:00.438Z,927.19
2019-03-31T05:11:32.202Z,927.19
2019-03-31T05:13:03.994Z,927.23
2019-03-31T05:14:35.808Z,927.23
2019-03-31T05:16:07.621Z,927.24
2019-03-31T05:17:39.533Z,927.21
2019-03-31T05:19:11.248Z,927.21
2019-03-31T05:20:43.060Z,927.19
2019-03-31T05:22:14.874Z,927.17
2019-03-31T05:23:46.694Z,927.24
2019-03-31T05:25:18.504Z,927.24
2019-03-31T05:26:50.313Z,927.22
2019-03-31T05:28:22.129Z,927.17
2019-03-31T05:29:53.940Z,927.16
2019-03-31T05:31:25.752Z,927.15
2019-03-31T05:32:57.568Z,927.18
2019-03-31T05:34:29.379Z,927.17
2019-03-31T05:36:01.443Z,927.17
2019-03-31T05:37:33.006Z,927.11
2019-03-31T05:39:04.827Z,927.05
2019-03-31T05:40:36.633Z,927.01
2019-03-31T05:42:08.446Z,926.99
2019-03-31T05:43:40.259Z,926.94
2019-03-31T05:45:12.072Z,926.91
2019-03-31T05:46:43.886Z,926.97
2019-03-31T05:48:15.700Z,926.95
2019-03-31T05:49:47.517Z,927.00
2019-03-31T05:51:19.325Z,926.97
2019-03-31T05:52:51.138Z,926.92
2019-03-31T05:54:23.053Z,926.93
2019-03-31T05:55:54.765Z,926.89
2019-03-31T05:57:26.578Z,926.91
2019-03-31T05:58:58.391Z,926.91
2019-03-31T06:00:30.205Z,926.92
2019-03-31T06:02:02.018Z,926.91
2019-03-31T06:03:33.832Z,926.88
2019-03-31T06:05:05.644Z,926.88
2019-03-31T06:06:37.458Z,926.87
2019-03-31T06:08:09.270Z,926.84
2019-03-31T06:09:41.083Z,926.88
2019-03-31T06:11:12.898Z,926.80
2019-03-31T06:12:44.810Z,926.79
2019-03-31T06:14:16.525Z,926.78
2019-03-31T06:15:48.336Z,926.81
2019-03-31T06:17:20.149Z,926.82
2019-03-31T06:18:52.063Z,926.75
2019-03-31T06:20:23.775Z,926.75
2019-03-31T06:21:55.588Z,926.69
2019-03-31T06:23:27.400Z,926.66
2019-03-31T06:24:59.314Z,926.65
2019-03-31T06:26:31.027Z,926.65
2019-03-31T06:28:02.840Z,926.63
2019-03-31T06:29:34.653Z,926.71
2019-03-31T06:31:06.567Z,926.67
2019-03-31T06:32:38.279Z,926.64
2019-03-31T06:34:10.092Z,926.69
2019-03-31T06:35:41.905Z,926.64
2019-03-31T06:37:13.819Z,926.68
2019-03-31T06:38:45.531Z,926.66
2019-03-31T06:40:17.345Z,926.74
2019-03-31T06:41:49.157Z,926.70
2019-03-31T06:43:20.970Z,926.71
2019-03-31T06:44:52.783Z,926.68
2019-03-31T06:46:24.596Z,926.64
2019-03-31T06:47:56.408Z,926.68
2019-03-31T06:49:28.322Z,926.66
2019-03-31T06:51:00.036Z,926.63
2019-03-31T06:52:31.847Z,926.66
2019-03-31T06:54:03.658Z,926.65
2019-03-31T06:55:35.472Z,926.68
2019-03-31T06:57:07.285Z,926.68
2019-03-31T06:58:39.098Z,926.67
2019-03-31T07:00:10.911Z,926.59
2019-03-31T07:01:42.728Z,926.55
2019-03-31T07:03:14.537Z,926.54
2019-03-31T07:04:50.728Z,926.54
2019-03-31T07:06:18.164Z,926.51
2019-03-31T07:07:50.176Z,926.54
2019-03-31T07:09:21.789Z,926.54
2019-03-31T07:10:53.604Z,926.53
2019-03-31T07:12:25.417Z,926.50
2019-03-31T07:13:57.228Z,926.55
2019-03-31T07:15:29.042Z,926.46
2019-03-31T07:17:00.854Z,926.48
2019-03-31T07:18:32.708Z,926.45
2019-03-31T07:20:04.536Z,926.42
2019-03-31T07:21:36.291Z,926.37
2019-03-31T07:23:08.103Z,926.32
2019-03-31T07:24:40.004Z,926.29
2019-03-31T07:26:11.829Z,926.24
2019-03-31T07:27:43.549Z,926.23
2019-03-31T07:29:15.354Z,926.26
2019-03-31T07:30:47.167Z,926.21
2019-03-31T07:32:18.980Z,926.22
2019-03-31T07:33:50.792Z,926.27
2019-03-31T07:35:22.606Z,926.28
2019-03-31T07:36:54.424Z,926.27
2019-03-31T07:38:38.273Z,926.24
2019-03-31T07:39:58.046Z,926.31
2019-03-31T07:41:29.864Z,926.30
2019-03-31T07:43:01.707Z,926.34
2019-03-31T07:44:33.594Z,926.32
2019-03-31T07:46:05.302Z,926.34
2019-03-31T07:47:37.105Z,926.30
2019-03-31T07:49:08.920Z,926.32
2019-03-31T07:50:40.732Z,926.33
2019-03-31T07:52:12.626Z,926.38
2019-03-31T07:53:44.357Z,926.39
2019-03-31T07:55:16.170Z,926.39
2019-03-31T07:56:47.983Z,926.37
2019-03-31T07:58:19.835Z,926.36
2019-03-31T07:59:51.609Z,926.39
2019-03-31T08:01:23.423Z,926.44
2019-03-31T08:02:55.342Z,926.50
2019-03-31T08:04:27.047Z,926.52
2019-03-31T08:05:58.860Z,926.56
2019-03-31T08:07:30.675Z,926.63
2019-03-31T08:09:02.586Z,926.59
2019-03-31T08:10:34.299Z,926.56
2019-03-31T08:12:06.120Z,926.55
2019-03-31T08:13:37.924Z,926.53
2019-03-31T08:15:09.738Z,926.57
2019-03-31T08:16:41.550Z,926.62
2019-03-31T08:18:13.365Z,926.57
2019-03-31T08:19:45.178Z,926.57
2019-03-31T08:21:17.089Z,926.56
2019-03-31T08:22:48.801Z,926.58
2019-03-31T08:24:20.614Z,926.55
2019-03-31T08:25:52.426Z,926.59
2019-03-31T08:27:24.240Z,926.61
2019-03-31T08:28:58.620Z,926.61
2019-03-31T08:30:27.867Z,926.54
2019-03-31T08:31:59.678Z,926.50
2019-03-31T08:33:31.491Z,926.46
2019-03-31T08:35:03.304Z,926.40
2019-03-31T08:36:35.487Z,926.36
2019-03-31T08:38:06.929Z,926.38
2019-03-31T08:39:38.943Z,926.43
2019-03-31T08:41:10.557Z,926.51
2019-03-31T08:42:42.368Z,926.63
2019-03-31T08:44:14.181Z,926.68
2019-03-31T08:45:45.995Z,926.68
2019-03-31T08:47:17.806Z,926.75
2019-03-31T08:48:49.618Z,926.80
2019-03-31T08:50:21.430Z,926.82
2019-03-31T08:51:53.243Z,926.92
2019-03-31T08:53:25.057Z,926.91
2019-03-31T08:54:56.869Z,926.97
2019-03-31T08:56:28.681Z,927.02
2019-03-31T08:58:00.597Z,927.09
2019-03-31T08:59:32.305Z,927.11
2019-03-31T09:01:04.118Z,927.12
2019-03-31T09:02:35.931Z,927.12
2019-03-31T09:04:07.750Z,927.13
2019-03-31T09:05:39.557Z,927.15
2019-03-31T09:07:11.370Z,927.20
2019-03-31T09:08:43.182Z,927.18
2019-03-31T09:10:14.995Z,927.21
2019-03-31T09:11:46.808Z,927.21
2019-03-31T09:13:18.620Z,927.22
2019-03-31T09:14:50.431Z,927.28
2019-03-31T09:16:22.345Z,927.26
2019-03-31T09:17:54.577Z,927.22
2019-03-31T09:19:25.887Z,927.23
2019-03-31T09:20:57.681Z,927.26
2019-03-31T09:22:29.496Z,927.27
2019-03-31T09:24:01.311Z,927.25
2019-03-31T09:25:33.120Z,927.27
2019-03-31T09:27:04.933Z,927.23
2019-03-31T09:28:36.744Z,927.19
2019-03-31T09:30:08.558Z,927.23
2019-03-31T09:31:40.370Z,927.15
2019-03-31T09:33:12.183Z,927.10
2019-03-31T09:34:44.097Z,927.09
2019-03-31T09:36:16.827Z,927.14
2019-03-31T09:37:47.622Z,927.16
2019-03-31T09:39:19.438Z,927.21
2019-03-31T09:40:51.250Z,927.24
2019-03-31T09:42:23.064Z,927.27
2019-03-31T09:43:54.877Z,927.26
2019-03-31T09:45:26.691Z,927.29
2019-03-31T09:46:58.505Z,927.26
2019-03-31T09:48:30.319Z,927.28
2019-03-31T09:50:02.134Z,927.25
2019-03-31T09:51:33.950Z,927.27
2019-03-31T09:53:05.916Z,927.27
2019-03-31T09:54:37.579Z,927.28
2019-03-31T09:56:09.395Z,927.30
2019-03-31T09:57:41.211Z,927.33
2019-03-31T09:59:13.027Z,927.39
2019-03-31T10:00:44.842Z,927.39
2019-03-31T10:02:16.659Z,927.42
2019-03-31T10:03:48.477Z,927.42
2019-03-31T10:05:20.292Z,927.46
2019-03-31T10:06:52.110Z,927.47
2019-03-31T10:08:23.927Z,927.55
2019-03-31T10:09:55.751Z,927.53
2019-03-31T10:11:28.463Z,927.51
2019-03-31T10:14:31.196Z,927.50
2019-03-31T10:16:03.015Z,927.55
2019-03-31T10:17:34.836Z,927.59
2019-03-31T10:19:06.655Z,927.61
2019-03-31T10:20:38.470Z,927.63
2019-03-31T10:22:10.290Z,927.59
2019-03-31T10:23:42.209Z,927.55
2019-03-31T10:25:13.928Z,927.58
2019-03-31T10:26:45.746Z,927.60
2019-03-31T10:28:17.565Z,927.65
2019-03-31T10:29:49.485Z,927.55
2019-03-31T10:31:21.205Z,927.65
2019-03-31T10:32:53.023Z,927.69
2019-03-31T10:34:24.843Z,927.64
2019-03-31T10:35:56.662Z,927.65
2019-03-31T10:37:28.481Z,927.68
2019-03-31T10:39:00.299Z,927.69
2019-03-31T10:40:32.117Z,927.76
2019-03-31T10:42:04.037Z,927.80
2019-03-31T10:43:35.755Z,927.93
2019-03-31T10:45:07.574Z,927.95
2019-03-31T10:46:39.393Z,928.06
2019-03-31T10:48:20.315Z,928.06
2019-03-31T10:49:43.031Z,928.15
2019-03-31T10:51:14.850Z,928.22
2019-03-31T10:52:46.668Z,928.33
2019-03-31T10:54:18.487Z,928.32
2019-03-31T10:55:50.304Z,928.31
2019-03-31T10:57:22.122Z,928.31
2019-03-31T10:58:53.939Z,928.45
2019-03-31T11:00:25.757Z,928.41
2019-03-31T11:01:57.575Z,928.50
2019-03-31T11:03:32.869Z,928.39
2019-03-31T11:05:01.210Z,928.52
2019-03-31T11:06:33.129Z,928.52
2019-03-31T11:08:04.844Z,928.58
2019-03-31T11:09:36.668Z,928.56
2019-03-31T11:11:08.478Z,928.49
2019-03-31T11:12:40.296Z,928.57
2019-03-31T11:14:12.113Z,928.50
2019-03-31T11:15:43.930Z,928.44
2019-03-31T11:17:15.747Z,928.65
2019-03-31T11:18:47.563Z,928.67
2019-03-31T11:20:19.380Z,928.51
2019-03-31T11:21:51.197Z,928.64
2019-03-31T11:23:23.014Z,928.66
2019-03-31T11:24:55.180Z,928.68
2019-03-31T11:26:26.649Z,928.67
2019-03-31T11:27:58.463Z,928.66
2019-03-31T11:29:30.280Z,928.67
2019-03-31T11:31:02.100Z,928.60
2019-03-31T11:32:33.913Z,928.61
2019-03-31T11:34:05.730Z,928.63
2019-03-31T11:35:37.546Z,928.68
2019-03-31T11:37:13.710Z,928.75
2019-03-31T11:38:41.269Z,928.86
2019-03-31T11:40:13.004Z,928.83
2019-03-31T11:41:44.819Z,928.74
2019-03-31T11:43:16.837Z,928.79
2019-03-31T11:44:48.455Z,928.87
2019-03-31T11:46:20.273Z,928.91
2019-03-31T11:47:52.092Z,928.92
2019-03-31T11:49:23.914Z,928.96
2019-03-31T11:50:55.729Z,929.01
2019-03-31T11:52:27.548Z,929.02
2019-03-31T11:53:59.368Z,929.04
2019-03-31T11:55:31.185Z,928.99
2019-03-31T11:57:03.004Z,929.03
2019-03-31T11:58:34.822Z,929.01
2019-03-31T12:00:06.643Z,929.06
2019-03-31T12:01:38.562Z,929.03
2019-03-31T12:03:10.357Z,928.95
2019-03-31T12:04:42.103Z,928.96
2019-03-31T12:06:13.924Z,929.02
2019-03-31T12:07:47.364Z,928.97
2019-03-31T12:09:17.566Z,928.99
2019-03-31T12:10:49.387Z,929.08
2019-03-31T12:12:21.209Z,929.03
2019-03-31T12:13:53.031Z,928.96
2019-03-31T12:15:24.852Z,928.76
2019-03-31T12:16:56.675Z,928.73
2019-03-31T12:18:28.498Z,928.84
2019-03-31T12:20:00.564Z,928.85
2019-03-31T12:21:32.140Z,928.83
2019-03-31T12:23:03.969Z,928.88
2019-03-31T12:24:35.785Z,928.59
2019-03-31T12:26:07.609Z,928.82
2019-03-31T12:27:39.429Z,928.82
2019-03-31T12:29:11.252Z,928.78
2019-03-31T12:30:43.074Z,928.63
2019-03-31T12:32:14.896Z,928.59
2019-03-31T12:33:46.723Z,928.46
2019-03-31T12:35:18.559Z,928.55
2019-03-31T12:36:50.368Z,928.51
2019-03-31T12:38:22.289Z,928.43
2019-03-31T12:39:54.012Z,928.49
2019-03-31T12:41:25.835Z,928.46
2019-03-31T12:42:57.659Z,928.42
2019-03-31T12:44:29.483Z,928.41
2019-03-31T12:46:01.403Z,928.32
2019-03-31T12:47:33.130Z,928.36
2019-03-31T12:49:04.954Z,928.27
2019-03-31T12:50:36.883Z,928.31
2019-03-31T12:52:08.602Z,928.25
2019-03-31T12:53:40.427Z,928.24
2019-03-31T12:55:12.250Z,928.20
2019-03-31T12:56:44.274Z,928.15
2019-03-31T12:58:15.904Z,928.15
2019-03-31T12:59:47.724Z,928.11
2019-03-31T13:01:19.546Z,928.10
2019-03-31T13:02:51.372Z,928.15
2019-03-31T13:04:23.195Z,928.09
2019-03-31T13:05:55.019Z,928.09
2019-03-31T13:07:26.844Z,928.11
2019-03-31T13:08:58.670Z,928.14
2019-03-31T13:10:30.501Z,928.06
2019-03-31T13:12:02.321Z,928.12
2019-03-31T13:13:34.142Z,928.17
2019-03-31T13:15:06.068Z,928.09
2019-03-31T13:16:37.792Z,928.08
2019-03-31T13:18:09.618Z,928.06
2019-03-31T13:19:41.443Z,928.21
2019-03-31T13:21:13.267Z,928.19
2019-03-31T13:22:46.003Z,928.18
2019-03-31T13:24:16.917Z,928.18
2019-03-31T13:25:48.742Z,928.10
2019-03-31T13:27:20.601Z,928.11
2019-03-31T13:28:52.391Z,928.13
2019-03-31T13:30:24.220Z,928.12
2019-03-31T13:31:56.041Z,928.10
2019-03-31T13:33:27.969Z,928.10
2019-03-31T13:34:59.694Z,928.07
2019-03-31T13:36:31.517Z,928.01
2019-03-31T13:38:11.090Z,928.00
2019-03-31T13:39:35.168Z,927.98
2019-03-31T13:41:06.992Z,927.95
2019-03-31T13:42:38.818Z,927.92
2019-03-31T13:44:10.647Z,928.00
2019-03-31T13:45:42.470Z,927.97
2019-03-31T13:47:14.299Z,927.93
2019-03-31T13:48:46.128Z,927.95
2019-03-31T13:50:17.949Z,927.92
2019-03-31T13:51:49.883Z,927.90
2019-03-31T13:53:21.604Z,927.91
2019-03-31T13:54:53.428Z,927.92
2019-03-31T13:56:25.568Z,927.80
2019-03-31T13:57:58.113Z,927.77
2019-03-31T13:59:28.908Z,927.70
2019-03-31T14:01:00.786Z,927.67
2019-03-31T14:02:32.565Z,927.62
2019-03-31T14:04:04.389Z,927.54
2019-03-31T14:05:36.259Z,927.57
2019-03-31T14:07:08.045Z,927.59
2019-03-31T14:08:39.870Z,927.59
2019-03-31T14:10:11.884Z,927.64
2019-03-31T14:11:43.523Z,927.58
2019-03-31T14:13:15.349Z,927.59
2019-03-31T14:14:47.177Z,927.55
2019-03-31T14:16:19.004Z,927.47
2019-03-31T14:17:50.836Z,927.50
2019-03-31T14:19:22.657Z,927.54
2019-03-31T14:20:54.488Z,927.55
2019-03-31T14:22:26.324Z,927.54
2019-03-31T14:23:58.138Z,927.47
2019-03-31T14:25:29.965Z,927.46
2019-03-31T14:27:01.804Z,927.38
2019-03-31T14:28:33.881Z,927.28
2019-03-31T14:30:05.454Z,927.28
2019-03-31T14:31:37.274Z,927.36
2019-03-31T14:33:09.102Z,927.31
2019-03-31T14:34:40.935Z,927.29
2019-03-31T14:36:12.841Z,927.28
2019-03-31T14:37:44.588Z,927.26
2019-03-31T14:39:17.208Z,927.28
2019-03-31T14:40:48.239Z,927.24
2019-03-31T14:42:20.069Z,927.13
2019-03-31T14:43:51.894Z,927.13
2019-03-31T14:45:23.722Z,927.12
2019-03-31T14:46:55.651Z,927.06
2019-03-31T14:48:27.379Z,927.09
2019-03-31T14:49:59.208Z,927.05
2019-03-31T14:51:31.035Z,927.04
2019-03-31T14:53:02.866Z,927.05
2019-03-31T14:54:34.690Z,927.00
2019-03-31T14:56:06.518Z,926.96
2019-03-31T14:57:38.349Z,926.95
2019-03-31T14:59:10.174Z,926.92
2019-03-31T15:00:42.053Z,926.90
2019-03-31T15:02:13.835Z,926.87
2019-03-31T15:03:45.660Z,926.91
2019-03-31T15:05:17.588Z,926.90
2019-03-31T15:06:49.316Z,926.94
2019-03-31T15:08:21.148Z,926.96
2019-03-31T15:09:52.976Z,926.97
2019-03-31T15:11:24.807Z,926.99
2019-03-31T15:12:56.631Z,926.99
2019-03-31T15:14:28.461Z,927.01
2019-03-31T15:16:00.299Z,926.96
2019-03-31T15:17:32.119Z,926.89
2019-03-31T15:19:03.954Z,926.85
2019-03-31T15:20:35.777Z,926.80
2019-03-31T15:22:07.608Z,926.82
2019-03-31T15:23:39.543Z,926.77
2019-03-31T15:25:11.269Z,926.81
2019-03-31T15:26:43.095Z,926.75
2019-03-31T15:28:14.925Z,926.77
2019-03-31T15:29:46.855Z,926.72
2019-03-31T15:31:18.584Z,926.69
2019-03-31T15:32:50.415Z,926.65
2019-03-31T15:34:22.243Z,926.64
2019-03-31T15:35:54.105Z,926.73
2019-03-31T15:37:26.041Z,926.74
2019-03-31T15:39:08.084Z,926.67
2019-03-31T15:40:29.628Z,926.68
2019-03-31T15:42:01.498Z,926.63
2019-03-31T15:43:33.303Z,926.58
2019-03-31T15:45:05.056Z,926.58
2019-03-31T15:46:36.883Z,926.59
2019-03-31T15:48:08.714Z,926.59
2019-03-31T15:49:40.544Z,926.51
2019-03-31T15:51:12.388Z,926.59
2019-03-31T15:52:44.206Z,926.62
2019-03-31T15:54:16.059Z,926.64
2019-03-31T15:55:47.863Z,926.67
2019-03-31T15:57:19.694Z,926.62
2019-03-31T15:58:51.828Z,926.65
2019-03-31T16:00:23.759Z,926.63
2019-03-31T16:01:55.183Z,926.58
2019-03-31T16:03:27.013Z,926.55
2019-03-31T16:04:58.843Z,926.47
2019-03-31T16:06:30.686Z,926.45
2019-03-31T16:08:02.705Z,926.36
2019-03-31T16:09:34.535Z,926.31
2019-03-31T16:11:06.163Z,926.31
2019-03-31T16:12:37.992Z,926.36
2019-03-31T16:14:09.822Z,926.30
2019-03-31T16:15:41.854Z,926.26
2019-03-31T16:17:13.482Z,926.35
2019-03-31T16:18:45.471Z,926.32
2019-03-31T16:20:17.163Z,926.31
2019-03-31T16:21:48.971Z,926.31
2019-03-31T16:23:20.801Z,926.31
2019-03-31T16:24:52.631Z,926.32
2019-03-31T16:26:24.461Z,926.30
2019-03-31T16:27:56.292Z,926.23
2019-03-31T16:29:28.123Z,926.23
2019-03-31T16:30:59.962Z,926.27
2019-03-31T16:32:31.781Z,926.31
2019-03-31T16:34:03.814Z,926.27
2019-03-31T16:35:35.440Z,926.34
2019-03-31T16:37:07.676Z,926.29
2019-03-31T16:38:39.100Z,926.19
2019-03-31T16:40:10.927Z,926.19
2019-03-31T16:41:42.838Z,926.13
2019-03-31T16:43:14.589Z,926.15
2019-03-31T16:44:57.643Z,926.19
2019-03-31T16:46:18.249Z,926.07
2019-03-31T16:47:50.077Z,926.12
2019-03-31T16:49:21.907Z,926.04
2019-03-31T16:50:53.735Z,926.03
2019-03-31T16:52:25.766Z,925.85
2019-03-31T16:53:57.917Z,925.81
2019-03-31T16:55:29.318Z,925.79
2019-03-31T16:57:01.043Z,925.71
2019-03-31T16:58:32.869Z,925.69
2019-03-31T17:00:04.695Z,925.60
2019-03-31T17:01:36.519Z,925.55
2019-03-31T17:03:08.344Z,925.54
2019-03-31T17:04:40.168Z,925.48
2019-03-31T17:06:11.994Z,925.49
2019-03-31T17:07:43.818Z,925.43
2019-03-31T17:10:47.468Z,925.44
2019-03-31T17:12:19.291Z,925.46
2019-03-31T17:13:51.215Z,925.43
2019-03-31T17:15:22.943Z,925.49
2019-03-31T17:16:54.762Z,925.51
2019-03-31T17:18:26.592Z,925.47
2019-03-31T17:19:58.411Z,925.58
2019-03-31T17:21:30.235Z,925.64
2019-03-31T17:24:34.188Z,925.72
2019-03-31T17:26:05.707Z,925.57
2019-03-31T17:27:37.536Z,925.38
2019-03-31T17:29:09.362Z,925.38
2019-03-31T17:30:41.184Z,925.44
2019-03-31T17:32:13.109Z,925.42
2019-03-31T17:33:44.834Z,925.45
2019-03-31T17:35:16.660Z,925.28
2019-03-31T17:36:48.494Z,925.44
2019-03-31T17:38:20.323Z,925.38
2019-03-31T17:40:05.375Z,925.27
2019-03-31T17:42:55.788Z,925.24
2019-03-31T17:44:27.614Z,925.13
2019-03-31T17:45:59.439Z,925.13
2019-03-31T17:47:31.266Z,925.07
2019-03-31T17:49:03.092Z,925.06
2019-03-31T17:50:35.177Z,925.12
2019-03-31T17:52:06.757Z,925.10
2019-03-31T17:53:38.609Z,925.04
2019-03-31T17:55:10.394Z,925.06
2019-03-31T17:56:42.226Z,925.03
2019-03-31T17:58:14.106Z,924.97
2019-03-31T17:59:45.870Z,924.95
2019-03-31T18:01:17.696Z,924.96
2019-03-31T18:02:49.523Z,924.97
2019-03-31T18:04:21.347Z,925.01
2019-03-31T18:05:53.477Z,924.92
2019-03-31T18:07:24.997Z,924.94
2019-03-31T18:08:56.923Z,924.75
2019-03-31T18:10:28.648Z,924.81
2019-03-31T18:12:00.472Z,924.87
2019-03-31T18:13:32.297Z,924.89
2019-03-31T18:15:04.123Z,924.92
2019-03-31T18:16:35.956Z,924.90
2019-03-31T18:19:39.597Z,924.96
2019-03-31T18:21:11.423Z,924.99
2019-03-31T18:22:43.243Z,925.03
2019-03-31T18:24:15.068Z,924.89
2019-03-31T18:25:46.900Z,924.98
2019-03-31T18:27:18.818Z,924.93
2019-03-31T18:28:50.540Z,925.00
2019-03-31T18:30:22.364Z,925.00
2019-03-31T18:31:54.188Z,925.00
2019-03-31T18:33:26.013Z,924.98
2019-03-31T18:34:57.897Z,925.07
2019-03-31T18:36:36.613Z,925.12
2019-03-31T18:38:01.790Z,925.09
2019-03-31T18:39:33.309Z,925.09
2019-03-31T18:41:05.134Z,925.02
2019-03-31T18:42:36.957Z,925.06
2019-03-31T18:44:08.781Z,925.07
2019-03-31T18:45:40.706Z,925.13
2019-03-31T18:47:12.432Z,925.16
2019-03-31T18:48:44.252Z,925.09
2019-03-31T18:50:16.077Z,925.09
2019-03-31T18:51:47.898Z,925.15
2019-03-31T18:53:19.721Z,925.09
2019-03-31T18:54:51.747Z,925.05
2019-03-31T18:56:23.373Z,925.05
2019-03-31T18:57:55.211Z,925.05
2019-03-31T18:59:27.014Z,925.03
2019-03-31T19:00:58.839Z,925.00
2019-03-31T19:02:30.661Z,925.05
2019-03-31T19:04:02.584Z,925.03
2019-03-31T19:05:34.308Z,925.05
2019-03-31T19:07:06.131Z,925.06
2019-03-31T19:08:37.954Z,925.11
2019-03-31T19:10:23.675Z,925.08
2019-03-31T19:13:13.445Z,925.24
2019-03-31T19:14:45.552Z,925.16